Time;durP1;ratioP1;P1;durP2;ratioP2;P2;SDS_P1;SDS_P2;PMS_P1;PMS_P2;Temp;Humidity;BMP_temperature;BMP_pressure;BME280_temperature;BME280_humidity;BME280_pressure;Samples;Min_cycle;Max_cycle;Signal;HPM_P1;HPM_P2
2022/10/24 00:01:19;;;;;;;19.00;4.65;;;16.30;99.90;;;16.01;100.00;96774.47;5048141;28;20516;-70
2022/10/24 00:03:47;;;;;;;18.60;4.60;;;16.30;99.90;;;16.15;100.00;96776.03;5050925;28;20132;-69
2022/10/24 00:06:15;;;;;;;20.67;5.05;;;16.40;99.90;;;16.02;100.00;96780.53;5053160;28;20087;-69
2022/10/24 00:08:43;;;;;;;25.17;5.30;;;16.40;99.90;;;16.04;100.00;96786.50;5060623;28;20059;-69
2022/10/24 00:11:14;;;;;;;24.38;5.38;;;16.40;99.90;;;15.95;100.00;96779.34;5054162;28;20415;-70
2022/10/24 00:13:42;;;;;;;24.40;4.70;;;16.30;99.90;;;16.03;100.00;96771.72;5051154;28;20044;-69
2022/10/24 00:16:10;;;;;;;19.88;5.18;;;16.30;99.90;;;15.98;100.00;96769.47;5056951;28;20056;-70
2022/10/24 00:18:37;;;;;;;22.48;4.72;;;16.30;99.90;;;15.91;100.00;96770.91;5052343;28;20056;-71
2022/10/24 00:21:06;;;;;;;20.30;5.10;;;16.20;99.90;;;15.86;100.00;96766.00;5054714;28;20105;-70
2022/10/24 00:23:33;;;;;;;25.63;5.90;;;16.20;99.90;;;15.94;100.00;96773.25;5050755;28;20098;-70
2022/10/24 00:26:02;;;;;;;21.98;5.32;;;16.20;99.90;;;15.83;100.00;96771.50;5052101;28;20093;-70
2022/10/24 00:28:32;;;;;;;23.02;5.82;;;16.10;99.90;;;15.79;100.00;96759.59;5054178;28;20078;-70
2022/10/24 00:31:00;;;;;;;23.30;5.65;;;16.10;99.90;;;15.82;100.00;96763.75;5054971;28;20075;-70
2022/10/24 00:33:27;;;;;;;21.70;5.07;;;16.10;99.90;;;15.73;100.00;96764.47;5053922;28;20134;-70
2022/10/24 00:35:54;;;;;;;17.20;4.25;;;16.10;99.90;;;15.79;100.00;96758.75;5051720;28;20155;-70
2022/10/24 00:38:20;;;;;;;14.35;4.53;;;16.10;99.90;;;15.71;100.00;96745.41;5055595;28;20078;-71
2022/10/24 00:40:47;;;;;;;20.25;5.13;;;16.00;99.90;;;15.76;100.00;96758.97;5053899;28;20048;-70
2022/10/24 00:43:23;;;;;;;25.33;5.32;;;16.00;99.90;;;15.75;100.00;96763.38;5057003;28;20124;-70
2022/10/24 00:45:56;;;;;;;23.40;5.03;;;16.10;99.90;;;15.82;100.00;96761.97;5056479;28;20413;-70
2022/10/24 00:48:52;;;;;;;19.20;4.97;;;16.10;99.90;;;15.73;100.00;96767.06;5054222;28;20103;-70
2022/10/24 00:51:28;;;;;;;18.58;5.05;;;16.10;99.90;;;15.78;100.00;96759.69;5055778;28;20444;-70
2022/10/24 00:54:00;;;;;;;16.33;4.82;;;16.10;99.90;;;15.79;100.00;96759.59;5051924;28;20060;-70
2022/10/24 00:56:34;;;;;;;25.53;5.50;;;16.10;99.90;;;15.66;100.00;96759.66;5055916;28;20515;-70
2022/10/24 00:59:05;;;;;;;19.02;4.78;;;16.00;99.90;;;15.61;100.00;96764.41;5056348;28;20499;-70
2022/10/24 01:01:33;;;;;;;20.10;4.53;;;16.00;99.90;;;15.61;100.00;96761.78;5051801;28;20411;-70
2022/10/24 01:04:00;;;;;;;18.85;5.57;;;16.00;99.90;;;15.61;100.00;96758.34;5054539;28;20044;-70
2022/10/24 01:06:46;;;;;;;23.58;5.75;;;16.00;99.90;;;15.77;100.00;96756.25;5050858;28;20135;-70
2022/10/24 01:09:19;;;;;;;20.38;4.65;;;16.00;99.90;;;15.76;100.00;96744.13;5056890;28;20089;-70
2022/10/24 01:11:58;;;;;;;17.20;5.32;;;16.00;99.90;;;15.66;100.00;96749.19;5055679;28;20056;-70
2022/10/24 01:15:05;;;;;;;21.67;4.90;;;16.00;99.90;;;15.68;100.00;96751.69;5052956;28;20049;-70
2022/10/24 01:17:51;;;;;;;24.55;6.10;;;16.00;99.90;;;15.73;100.00;96756.59;5045357;28;20056;-70
2022/10/24 01:21:02;;;;;;;19.98;5.05;;;16.00;99.90;;;15.73;100.00;96749.59;5057097;28;20063;-70
2022/10/24 01:24:06;;;;;;;28.23;5.60;;;16.00;99.90;;;15.68;100.00;96744.66;5039494;28;20037;-69
2022/10/24 01:27:06;;;;;;;19.05;4.70;;;16.00;99.90;;;15.74;100.00;96756.50;5056111;28;20045;-69
2022/10/24 01:30:07;;;;;;;20.25;5.15;;;16.00;99.90;;;15.56;100.00;96750.03;5056717;28;20055;-69
2022/10/24 01:33:14;;;;;;;25.30;5.72;;;16.00;99.90;;;15.58;100.00;96751.56;5052985;28;20056;-70
2022/10/24 01:36:00;;;;;;;22.58;5.03;;;15.90;99.90;;;15.64;100.00;96753.69;5040279;28;20049;-70
2022/10/24 01:38:48;;;;;;;18.38;5.00;;;15.90;99.90;;;15.66;100.00;96746.56;5047768;28;20502;-70
2022/10/24 01:41:22;;;;;;;18.92;4.88;;;16.00;99.90;;;15.64;100.00;96740.63;5054402;28;20046;-70
2022/10/24 01:44:08;;;;;;;25.00;6.90;;;15.90;99.90;;;15.79;100.00;96745.69;5055222;28;20074;-70
2022/10/24 01:46:43;;;;;;;21.35;4.55;;;16.00;99.90;;;15.80;100.00;96742.09;5055501;28;20052;-69
2022/10/24 01:49:18;;;;;;;21.40;5.22;;;16.10;99.90;;;15.63;100.00;96748.59;5053249;28;20070;-71
2022/10/24 01:51:50;;;;;;;22.98;6.10;;;16.00;99.90;;;15.52;100.00;96748.59;5051903;28;20072;-70
2022/10/24 01:54:18;;;;;;;31.23;6.38;;;15.90;99.90;;;15.59;100.00;96749.78;5069054;28;20052;-69
2022/10/24 01:56:45;;;;;;;21.80;5.50;;;15.90;99.90;;;15.55;100.00;96749.16;5053893;28;20090;-70
2022/10/24 01:59:27;;;;;;;21.48;5.65;;;15.90;99.90;;;15.55;100.00;96756.19;5053967;28;20052;-70
2022/10/24 02:02:34;;;;;;;21.77;5.47;;;15.90;99.90;;;15.63;100.00;96751.22;5052091;28;20122;-69
2022/10/24 02:05:24;;;;;;;21.58;5.30;;;15.90;99.90;;;15.56;100.00;96745.63;5051782;28;21900;-69
2022/10/24 02:08:01;;;;;;;26.05;5.68;;;15.90;99.90;;;15.59;100.00;96748.00;5054372;28;20059;-69
2022/10/24 02:10:43;;;;;;;16.40;5.10;;;15.90;99.90;;;15.52;100.00;96749.41;5053196;28;20051;-70
2022/10/24 02:13:27;;;;;;;22.95;5.35;;;16.00;99.90;;;15.58;100.00;96748.13;5051246;28;20553;-70
2022/10/24 02:15:58;;;;;;;24.10;5.07;;;15.90;99.90;;;15.53;100.00;96745.00;5051685;28;20660;-70
2022/10/24 02:18:27;;;;;;;19.55;5.70;;;15.90;99.90;;;15.52;100.00;96749.41;5055276;28;20087;-69
2022/10/24 02:21:01;;;;;;;23.50;5.05;;;15.90;99.90;;;15.44;100.00;96738.69;5052104;28;20053;-70
2022/10/24 02:23:43;;;;;;;23.42;5.07;;;15.80;99.90;;;15.41;100.00;96739.75;5055715;28;20527;-69
2022/10/24 02:26:33;;;;;;;20.85;5.78;;;15.80;99.90;;;15.41;100.00;96733.69;5051208;28;20045;-69
2022/10/24 02:29:07;;;;;;;24.60;5.15;;;15.80;99.90;;;15.59;100.00;96739.31;5042758;28;20467;-69
2022/10/24 02:31:41;;;;;;;22.52;5.45;;;15.80;99.90;;;15.51;100.00;96734.69;5053871;28;20143;-69
2022/10/24 02:34:10;;;;;;;22.00;6.13;;;15.90;99.90;;;15.43;100.00;96723.97;5053538;28;20057;-69
2022/10/24 02:36:44;;;;;;;25.85;5.22;;;15.90;99.90;;;15.51;100.00;96728.59;5050682;28;20103;-69
2022/10/24 02:39:12;;;;;;;23.00;5.55;;;15.80;99.90;;;15.37;100.00;96716.56;5053167;28;20063;-69
2022/10/24 02:41:41;;;;;;;22.75;5.70;;;15.80;99.90;;;15.42;100.00;96730.16;5046861;28;20817;-69
2022/10/24 02:44:11;;;;;;;22.85;5.78;;;15.80;99.90;;;15.36;100.00;96728.81;5053500;28;20053;-69
2022/10/24 02:46:39;;;;;;;23.40;4.90;;;15.80;99.90;;;15.48;100.00;96740.94;5052196;28;20044;-68
2022/10/24 02:49:06;;;;;;;26.83;5.93;;;15.80;99.90;;;15.52;100.00;96720.66;5048686;28;20158;-69
2022/10/24 02:51:38;;;;;;;19.88;5.82;;;15.80;99.90;;;15.48;100.00;96724.44;5054851;28;20053;-69
2022/10/24 02:54:05;;;;;;;17.50;5.28;;;15.90;99.90;;;15.54;100.00;96721.34;5053691;28;20048;-69
2022/10/24 02:56:32;;;;;;;27.42;5.82;;;15.80;99.90;;;15.52;100.00;96720.66;5054017;28;20052;-69
2022/10/24 02:58:59;;;;;;;25.42;5.88;;;15.90;99.90;;;15.54;100.00;96717.91;5051728;28;20056;-69
2022/10/24 03:01:26;;;;;;;19.75;5.90;;;15.90;99.90;;;15.54;100.00;96713.50;5051523;28;20140;-69
2022/10/24 03:03:53;;;;;;;23.00;5.35;;;15.90;99.90;;;15.58;100.00;96719.34;5051723;28;20465;-69
2022/10/24 03:06:20;;;;;;;24.63;5.60;;;15.90;99.90;;;15.51;100.00;96715.53;5052266;28;20048;-69
2022/10/24 03:08:47;;;;;;;28.42;6.35;;;15.90;99.90;;;15.50;100.00;96725.16;5052438;28;20052;-69
2022/10/24 03:11:14;;;;;;;21.02;5.93;;;15.90;99.90;;;15.50;100.00;96726.94;5052199;28;20056;-69
2022/10/24 03:13:40;;;;;;;26.35;6.38;;;15.90;99.90;;;15.55;100.00;96741.31;5052409;28;20057;-69
2022/10/24 03:16:07;;;;;;;18.45;5.95;;;15.90;99.90;;;15.62;100.00;96744.31;5051573;28;20355;-69
2022/10/24 03:18:39;;;;;;;23.92;5.95;;;15.90;99.90;;;15.51;100.00;96737.28;5053862;28;20087;-68
2022/10/24 03:21:06;;;;;;;20.45;6.55;;;15.90;99.90;;;15.67;100.00;96758.72;5054747;28;20072;-69
2022/10/24 03:23:33;;;;;;;25.95;6.47;;;16.00;99.90;;;15.67;100.00;96740.41;5049967;28;20048;-69
2022/10/24 03:26:00;;;;;;;22.63;6.28;;;16.00;99.90;;;15.71;100.00;96732.34;5055956;28;20056;-69
2022/10/24 03:28:27;;;;;;;18.25;6.05;;;16.10;99.90;;;15.78;100.00;96747.47;5054364;28;20430;-68
2022/10/24 03:30:55;;;;;;;30.75;7.97;;;16.10;99.90;;;15.82;100.00;96748.88;5059894;28;20060;-69
2022/10/24 03:33:22;;;;;;;20.88;6.15;;;16.20;99.90;;;15.78;100.00;96742.25;5065680;28;20437;-69
2022/10/24 03:35:53;;;;;;;27.42;6.10;;;16.20;99.90;;;15.87;100.00;96749.38;5061836;28;20057;-69
2022/10/24 03:38:22;;;;;;;22.92;6.53;;;16.30;99.90;;;15.84;100.00;96744.38;5068127;28;20052;-69
2022/10/24 03:40:49;;;;;;;25.85;5.97;;;16.20;99.90;;;15.82;100.00;96743.66;5060404;28;20060;-69
2022/10/24 03:43:18;;;;;;;20.55;6.57;;;16.20;99.90;;;15.76;100.00;96728.44;5057790;28;20048;-69
2022/10/24 03:45:45;;;;;;;13.48;6.10;;;16.20;99.90;;;15.76;100.00;96727.59;5055994;28;20056;-68
2022/10/24 03:48:12;;;;;;;25.20;6.13;;;16.10;99.90;;;15.83;100.00;96734.84;5058640;28;20048;-69
2022/10/24 03:50:40;;;;;;;21.83;4.93;;;16.20;99.90;;;15.86;100.00;96724.16;5051808;28;20101;-69
2022/10/24 03:53:07;;;;;;;21.35;5.93;;;16.20;99.90;;;15.77;100.00;96743.16;5069325;28;20503;-69
2022/10/24 03:55:34;;;;;;;27.27;5.72;;;16.20;99.90;;;15.82;100.00;96742.81;5053749;28;20072;-69
2022/10/24 03:58:01;;;;;;;23.67;5.78;;;16.20;99.90;;;15.88;100.00;96735.31;5056010;28;20045;-70
2022/10/24 04:00:28;;;;;;;18.20;6.00;;;16.10;99.90;;;15.81;100.00;96747.22;5054620;28;20151;-69
2022/10/24 04:02:55;;;;;;;24.50;5.68;;;16.20;99.90;;;15.75;100.00;96749.47;5056719;28;20406;-69
2022/10/24 04:05:22;;;;;;;23.20;5.57;;;16.20;99.90;;;15.67;100.00;96745.63;5056902;28;20755;-69
2022/10/24 04:07:49;;;;;;;28.23;6.18;;;16.10;99.90;;;15.63;100.00;96743.38;5055451;28;20045;-69
2022/10/24 04:10:16;;;;;;;25.88;6.63;;;16.10;99.90;;;15.73;100.00;96751.38;5056447;28;20390;-69
2022/10/24 04:12:43;;;;;;;18.88;5.50;;;16.00;99.90;;;15.67;100.00;96758.72;5054895;28;20044;-70
2022/10/24 04:15:10;;;;;;;28.75;6.60;;;16.00;99.90;;;15.65;100.00;96751.94;5053657;28;20110;-69
2022/10/24 04:17:37;;;;;;;29.50;6.40;;;16.10;99.90;;;15.67;100.00;96750.88;5053554;28;20056;-69
2022/10/24 04:20:05;;;;;;;24.42;6.38;;;16.10;99.90;;;15.59;100.00;96752.41;5053166;28;20485;-69
2022/10/24 04:22:32;;;;;;;32.78;6.50;;;16.00;99.90;;;15.62;100.00;96758.25;5057046;28;20052;-69
2022/10/24 04:24:59;;;;;;;21.17;6.38;;;16.00;99.90;;;15.56;100.00;96763.09;5055336;28;20151;-69
2022/10/24 04:27:26;;;;;;;21.00;6.10;;;15.90;99.90;;;15.64;100.00;96764.16;5056282;28;20061;-69
2022/10/24 04:29:53;;;;;;;23.88;5.72;;;15.90;99.90;;;15.59;100.00;96761.06;5056773;28;20057;-69
2022/10/24 04:32:20;;;;;;;22.63;6.22;;;15.90;99.90;;;15.60;100.00;96757.53;5057424;28;20060;-69
2022/10/24 04:34:47;;;;;;;19.80;5.97;;;16.00;99.90;;;15.65;100.00;96747.53;5051862;28;20060;-69
2022/10/24 04:37:13;;;;;;;21.63;5.65;;;16.00;99.90;;;15.73;100.00;96754.81;5053952;28;20060;-69
2022/10/24 04:39:40;;;;;;;18.73;6.45;;;16.10;99.90;;;15.70;100.00;96765.50;5053245;28;20803;-69
2022/10/24 04:42:07;;;;;;;21.27;5.90;;;16.00;99.90;;;15.72;100.00;96761.00;5054015;28;20071;-69
2022/10/24 04:44:34;;;;;;;19.50;5.68;;;16.00;99.90;;;15.66;100.00;96775.34;5052476;28;20105;-69
2022/10/24 04:47:01;;;;;;;32.03;6.72;;;16.00;99.90;;;15.68;100.00;96764.78;5056237;28;20060;-69
2022/10/24 04:49:28;;;;;;;20.65;5.82;;;16.00;99.90;;;15.77;100.00;96766.72;5054931;28;20055;-69
2022/10/24 04:51:55;;;;;;;23.52;5.80;;;16.10;99.90;;;15.85;100.00;96774.81;5052160;28;20044;-69
2022/10/24 04:54:22;;;;;;;21.77;5.93;;;16.10;99.90;;;15.88;100.00;96748.41;5053271;28;20444;-69
2022/10/24 04:56:48;;;;;;;29.63;6.43;;;16.20;99.90;;;15.97;100.00;96774.84;5051473;28;20049;-69
2022/10/24 04:59:15;;;;;;;20.60;5.78;;;16.30;99.90;;;15.89;100.00;96760.53;5049574;28;20055;-69
2022/10/24 05:01:42;;;;;;;17.83;5.15;;;16.30;99.90;;;15.87;100.00;96765.09;5053753;28;20040;-69
2022/10/24 05:04:09;;;;;;;20.30;5.35;;;16.20;99.90;;;15.85;100.00;96771.34;5054622;28;20049;-69
2022/10/24 05:06:36;;;;;;;22.58;5.47;;;16.20;99.90;;;15.96;100.00;96768.75;5050867;28;20365;-69
2022/10/24 05:09:07;;;;;;;32.40;5.85;;;16.30;99.90;;;15.86;100.00;96759.97;5054707;28;20049;-69
2022/10/24 05:11:34;;;;;;;19.45;5.45;;;16.30;99.90;;;15.84;100.00;96760.06;5056380;28;20108;-69
2022/10/24 05:14:01;;;;;;;19.90;5.53;;;16.30;99.90;;;15.87;100.00;96757.22;5052934;28;20053;-68
2022/10/24 05:16:27;;;;;;;21.30;5.15;;;16.30;99.90;;;15.83;100.00;96768.88;5054027;28;20045;-69
2022/10/24 05:18:54;;;;;;;24.92;6.30;;;16.30;99.90;;;15.78;100.00;96776.25;5055844;28;20490;-69
2022/10/24 05:21:22;;;;;;;18.45;4.97;;;16.20;99.90;;;15.73;100.00;96769.69;5053127;28;20041;-69
2022/10/24 05:23:49;;;;;;;19.00;4.80;;;16.10;99.90;;;15.73;100.00;96777.53;5054400;28;20079;-69
2022/10/24 05:26:16;;;;;;;23.38;5.85;;;16.00;99.90;;;15.73;100.00;96783.59;5058344;28;20422;-69
2022/10/24 05:28:43;;;;;;;17.75;5.18;;;16.00;99.90;;;15.68;100.00;96785.72;5053380;28;20951;-69
2022/10/24 05:31:15;;;;;;;;;;;16.00;99.90;;;15.59;100.00;96781.16;5053788;28;20241;-69
2022/10/24 05:33:42;;;;;;;21.00;4.80;;;16.10;99.90;;;15.67;100.00;96790.13;5053828;28;19924;-69
2022/10/24 05:36:09;;;;;;;15.07;4.40;;;16.00;99.90;;;15.75;100.00;96783.50;5051336;28;20053;-69
2022/10/24 05:38:36;;;;;;;26.77;6.47;;;16.00;99.90;;;15.77;100.00;96792.88;5053627;28;20056;-69
2022/10/24 05:41:03;;;;;;;14.88;4.28;;;16.20;99.90;;;15.71;100.00;96792.50;5031480;28;20045;-69
2022/10/24 05:43:30;;;;;;;17.70;4.68;;;16.20;99.90;;;15.71;100.00;96792.50;5064829;28;20063;-70
2022/10/24 05:45:56;;;;;;;20.98;5.88;;;16.00;99.90;;;15.67;100.00;96786.66;5053061;28;20044;-69
2022/10/24 05:48:23;;;;;;;18.48;5.07;;;16.00;99.90;;;15.56;100.00;96792.69;5052080;28;20127;-69
2022/10/24 05:50:56;;;;;;;32.05;6.57;;;15.90;99.90;;;15.59;100.00;96794.25;5045796;28;20086;-70
2022/10/24 05:53:24;;;;;;;;;;;15.90;99.90;;;15.50;100.00;96795.78;5052166;28;20520;-69
2022/10/24 05:55:51;;;;;;;21.70;5.72;;;15.90;99.90;;;15.48;100.00;96810.75;5061346;28;20346;-69
2022/10/24 05:58:21;;;;;;;24.25;6.95;;;15.90;99.90;;;15.55;100.00;96814.56;5049652;28;20052;-69
2022/10/24 06:00:49;;;;;;;18.50;5.93;;;15.90;99.90;;;15.52;100.00;96824.44;5054694;28;20059;-69
2022/10/24 06:03:20;;;;;;;22.00;6.33;;;15.90;99.90;;;15.51;100.00;96807.91;5052156;28;20128;-69
2022/10/24 06:05:48;;;;;;;23.88;5.88;;;15.80;99.90;;;15.40;100.00;96819.16;5057166;28;20377;-69
2022/10/24 06:08:15;;;;;;;24.80;5.70;;;15.80;99.90;;;15.43;100.00;96815.47;5051649;28;20710;-69
2022/10/24 06:10:47;;;;;;;19.77;5.38;;;15.80;99.90;;;15.44;100.00;96818.00;5048522;28;20052;-69
2022/10/24 06:13:14;;;;;;;23.95;6.10;;;15.80;99.90;;;15.36;100.00;96803.81;5052207;28;20074;-69
2022/10/24 06:15:43;;;;;;;23.08;6.07;;;15.70;99.90;;;15.44;100.00;96802.31;5050789;28;20049;-69
2022/10/24 06:18:10;;;;;;;23.17;6.45;;;15.70;99.90;;;15.42;100.00;96804.19;5056104;28;20044;-69
2022/10/24 06:20:37;;;;;;;23.23;6.20;;;15.70;99.90;;;15.39;100.00;96790.50;5068614;28;20044;-69
2022/10/24 06:23:04;;;;;;;26.25;6.90;;;15.70;99.90;;;15.40;100.00;96798.25;5052512;28;20432;-69
2022/10/24 06:25:31;;;;;;;21.55;6.78;;;15.70;99.90;;;15.33;100.00;96797.03;5054340;28;20040;-69
2022/10/24 06:27:58;;;;;;;24.45;7.05;;;15.80;99.90;;;15.50;100.00;96793.16;5053324;28;20079;-69
2022/10/24 06:30:26;;;;;;;22.70;6.40;;;15.80;99.90;;;15.41;100.00;96791.22;5053056;28;20418;-69
2022/10/24 06:32:53;;;;;;;23.70;6.15;;;15.80;99.90;;;15.41;100.00;96802.50;5052062;28;20143;-69
2022/10/24 06:35:20;;;;;;;21.58;5.95;;;15.80;99.90;;;15.36;100.00;96807.25;5053955;28;20071;-69
2022/10/24 06:37:47;;;;;;;27.02;6.85;;;15.80;99.90;;;15.38;100.00;96802.75;5051108;28;20060;-69
2022/10/24 06:40:16;;;;;;;19.05;5.40;;;15.80;99.90;;;15.40;100.00;96819.16;5053584;28;20044;-69
2022/10/24 06:42:44;;;;;;;19.77;6.97;;;15.80;99.90;;;15.45;100.00;96816.22;5051921;28;20056;-69
2022/10/24 06:45:12;;;;;;;22.10;5.55;;;15.90;99.90;;;15.45;100.00;96816.22;5059579;28;20075;-69
2022/10/24 06:47:39;;;;;;;28.60;6.80;;;15.90;99.90;;;15.50;100.00;96823.72;5051287;28;20044;-70
2022/10/24 06:50:06;;;;;;;25.67;7.43;;;15.90;99.90;;;15.55;100.00;96811.94;5051661;28;20050;-69
2022/10/24 06:52:35;;;;;;;19.60;6.32;;;15.90;99.90;;;15.57;100.00;96812.66;5054432;28;20575;-69
2022/10/24 06:55:02;;;;;;;21.55;5.85;;;15.90;99.90;;;15.53;100.00;96798.19;5052669;28;20427;-69
2022/10/24 06:57:29;;;;;;;19.67;6.40;;;15.90;99.90;;;15.50;100.00;96798.38;5056870;28;20093;-69
2022/10/24 06:59:56;;;;;;;24.10;6.03;;;16.00;99.90;;;15.64;100.00;96808.63;5051433;28;20075;-69
2022/10/24 07:02:23;;;;;;;19.70;5.25;;;15.90;99.90;;;15.53;100.00;96813.00;5055469;28;20053;-69
2022/10/24 07:04:51;;;;;;;24.35;6.05;;;16.00;99.90;;;15.52;100.00;96814.78;5053132;28;20117;-69
2022/10/24 07:07:21;;;;;;;18.15;6.03;;;16.00;99.90;;;15.57;100.00;96824.91;5052284;28;20048;-69
2022/10/24 07:09:56;;;;;;;21.65;5.70;;;16.00;99.90;;;15.59;100.00;96836.94;5054179;28;20662;-69
2022/10/24 07:12:24;;;;;;;19.80;5.53;;;16.00;99.90;;;15.58;100.00;96842.28;5053044;28;20071;-69
2022/10/24 07:14:51;;;;;;;17.55;5.00;;;16.10;99.90;;;15.62;100.00;96847.19;5054191;28;20380;-69
2022/10/24 07:17:19;;;;;;;21.77;5.38;;;16.10;99.90;;;15.60;100.00;96858.69;5053110;28;20067;-69
2022/10/24 07:19:55;;;;;;;19.15;5.90;;;16.10;99.90;;;15.64;100.00;96854.91;5056040;28;20060;-69
2022/10/24 07:22:23;;;;;;;17.60;5.03;;;16.20;99.90;;;15.66;100.00;96855.63;5054636;28;20053;-69
2022/10/24 07:24:54;;;;;;;15.52;4.60;;;16.10;99.90;;;15.58;100.00;96868.47;5058752;28;20561;-69
2022/10/24 07:27:22;;;;;;;16.42;5.55;;;16.10;99.90;;;15.71;100.00;96863.16;5054903;28;20063;-69
2022/10/24 07:29:50;;;;;;;17.02;4.53;;;16.20;99.90;;;15.72;100.00;96872.69;5058453;28;20060;-69
2022/10/24 07:32:18;;;;;;;19.83;4.65;;;16.10;99.90;;;15.69;100.00;96873.69;5057548;28;20147;-69
2022/10/24 07:34:46;;;;;;;16.20;4.60;;;16.10;99.90;;;15.73;100.00;96872.56;5054967;28;20055;-69
2022/10/24 07:37:15;;;;;;;20.52;4.38;;;16.20;99.90;;;15.72;100.00;96888.38;5040012;28;20056;-69
2022/10/24 07:39:42;;;;;;;22.33;5.28;;;16.30;99.90;;;15.78;100.00;96890.53;5055580;28;20174;-69
2022/10/24 07:42:14;;;;;;;21.98;4.40;;;16.30;99.90;;;15.86;100.00;96886.41;5055255;28;20498;-69
2022/10/24 07:44:41;;;;;;;14.43;3.47;;;16.30;99.90;;;15.89;100.00;96888.78;5055440;28;20048;-69
2022/10/24 07:47:08;;;;;;;20.60;4.88;;;16.40;99.90;;;15.90;100.00;96889.63;5056124;28;20044;-69
2022/10/24 07:49:36;;;;;;;18.15;4.15;;;16.40;99.90;;;15.98;100.00;96894.28;5056370;28;20098;-69
2022/10/24 07:52:04;;;;;;;15.02;3.88;;;16.50;99.90;;;16.00;100.00;96895.81;5052906;28;20049;-69
2022/10/24 07:54:31;;;;;;;13.07;4.05;;;16.60;99.90;;;16.06;100.00;96899.78;5057808;28;20059;-69
2022/10/24 07:57:03;;;;;;;16.67;4.30;;;16.70;99.90;;;15.94;100.00;96892.84;5057363;28;20359;-69
2022/10/24 07:59:31;;;;;;;11.95;3.88;;;16.70;99.90;;;16.06;100.00;96898.00;5053916;28;20056;-69
2022/10/24 08:02:11;;;;;;;16.65;3.80;;;16.70;99.90;;;16.18;100.00;96893.59;5056249;28;20463;-69
2022/10/24 08:04:39;;;;;;;13.90;4.15;;;16.80;99.90;;;16.03;100.00;96905.22;5054139;28;20041;-69
2022/10/24 08:07:11;;;;;;;15.82;3.60;;;16.80;99.90;;;16.14;100.00;96897.41;5067726;28;20049;-69
2022/10/24 08:09:42;;;;;;;13.48;3.33;;;16.80;99.90;;;16.18;100.00;96895.38;5057018;28;20152;-69
2022/10/24 08:12:09;;;;;;;14.10;4.38;;;16.90;99.90;;;16.14;100.00;96893.94;5057174;28;20071;-69
2022/10/24 08:14:38;;;;;;;16.10;3.95;;;16.90;99.90;;;16.34;100.00;96895.88;5053921;28;21994;-69
2022/10/24 08:17:06;;;;;;;10.80;3.47;;;17.00;99.90;;;16.30;100.00;96905.75;5053775;28;20125;-69
2022/10/24 08:19:33;;;;;;;10.52;3.97;;;17.00;99.90;;;16.42;100.00;96913.63;5057196;28;20056;-69
2022/10/24 08:22:02;;;;;;;9.23;3.38;;;17.00;99.90;;;16.31;100.00;96910.03;5056096;28;20049;-70
2022/10/24 08:24:29;;;;;;;12.20;3.33;;;17.00;99.90;;;16.27;100.00;96913.03;5056363;28;20105;-70
2022/10/24 08:26:55;;;;;;;15.35;3.58;;;17.00;99.90;;;16.14;100.00;96915.72;5056934;28;20498;-69
2022/10/24 08:29:23;;;;;;;19.45;3.17;;;16.90;99.90;;;16.16;100.00;96918.22;5059082;28;20045;-69
2022/10/24 08:31:54;;;;;;;15.55;3.40;;;16.90;99.90;;;16.07;100.00;96925.81;5056981;28;20060;-69
2022/10/24 08:34:22;;;;;;;13.25;2.92;;;16.80;99.90;;;16.14;100.00;96920.13;5070570;28;20506;-69
2022/10/24 08:36:49;;;;;;;13.27;3.10;;;16.80;99.90;;;16.26;100.00;96920.06;5056160;28;20060;-69
2022/10/24 08:39:18;;;;;;;12.35;3.20;;;16.80;99.90;;;16.21;100.00;96923.94;5056623;28;20041;-69
2022/10/24 08:41:54;;;;;;;11.52;3.00;;;16.80;99.90;;;16.32;100.00;96921.34;5056467;28;20060;-69
2022/10/24 08:44:42;;;;;;;12.07;2.70;;;16.80;99.90;;;16.35;100.00;96931.59;5055930;28;20087;-69
2022/10/24 08:47:35;;;;;;;10.60;2.70;;;16.90;99.90;;;16.28;100.00;96928.63;5053095;28;20459;-69
2022/10/24 08:50:23;;;;;;;13.77;2.55;;;16.80;99.90;;;16.36;100.00;96930.66;5055397;28;20077;-69
2022/10/24 08:53:26;;;;;;;19.13;3.03;;;16.90;99.90;;;16.54;100.00;96930.19;5054368;28;20064;-69
2022/10/24 08:55:55;;;;;;;;;;;17.00;99.90;;;16.54;100.00;96933.66;5055110;28;20072;-69
2022/10/24 08:58:27;;;;;;;10.20;2.45;;;17.00;99.90;;;16.49;100.00;96936.63;5068418;28;19929;-69
2022/10/24 09:00:57;;;;;;;;;;;17.00;99.90;;;16.46;100.00;96936.84;5056355;28;20048;-69
2022/10/24 09:03:33;;;;;;;8.88;2.35;;;17.10;99.90;;;16.50;100.00;96938.28;5068478;28;20207;-69
2022/10/24 09:06:28;;;;;;;13.77;2.85;;;17.10;99.90;;;16.52;100.00;96933.75;5065890;28;20195;-69
2022/10/24 09:09:04;;;;;;;11.02;2.80;;;17.20;99.90;;;16.57;100.00;96935.19;5056986;28;20522;-71
2022/10/24 09:11:58;;;;;;;12.50;2.75;;;17.30;99.90;;;16.65;100.00;96935.41;5053036;28;20538;-70
2022/10/24 09:14:36;;;;;;;10.30;2.00;;;17.40;99.90;;;16.78;100.00;96930.91;5056638;28;20179;-70
2022/10/24 09:17:29;;;;;;;9.65;2.42;;;17.50;99.90;;;17.04;100.00;96946.44;5054730;28;20076;-70
2022/10/24 09:20:42;;;;;;;13.07;2.60;;;17.60;99.90;;;17.18;100.00;96961.88;5057911;28;20132;-70
2022/10/24 09:23:13;;;;;;;13.43;3.28;;;17.80;99.90;;;17.43;100.00;96965.19;5056473;28;20059;-70
2022/10/24 09:25:47;;;;;;;11.77;2.15;;;18.10;99.90;;;17.30;100.00;96962.69;5055117;28;20371;-70
2022/10/24 09:28:14;;;;;;;8.32;2.65;;;18.00;99.90;;;17.45;100.00;96974.59;5056326;28;20052;-70
2022/10/24 09:30:42;;;;;;;12.52;2.38;;;18.10;99.90;;;17.41;100.00;96970.56;5050310;28;20479;-70
2022/10/24 09:33:34;;;;;;;7.82;2.10;;;18.10;99.90;;;17.57;100.00;96975.41;5056048;28;20156;-70
2022/10/24 09:36:04;;;;;;;9.48;2.05;;;18.20;99.90;;;17.65;100.00;96994.00;5054161;28;20062;-70
2022/10/24 09:38:35;;;;;;;6.90;2.00;;;;;;;17.68;100.00;96988.50;5054132;28;20510;-70
2022/10/24 09:41:18;;;;;;;12.20;2.80;;;18.50;99.90;;;17.76;100.00;96993.94;5056904;28;20406;-70
2022/10/24 09:43:56;;;;;;;9.88;2.38;;;18.60;99.90;;;17.89;100.00;96978.06;5054642;28;20059;-70
2022/10/24 09:46:37;;;;;;;9.93;2.15;;;18.70;99.90;;;17.67;100.00;97010.44;5053963;28;20040;-70
2022/10/24 09:49:21;;;;;;;13.38;3.03;;;18.60;99.90;;;17.53;100.00;96990.53;5058175;28;20058;-70
2022/10/24 09:52:24;;;;;;;11.80;2.20;;;18.60;99.90;;;17.48;100.00;97010.25;5054883;28;20068;-69
2022/10/24 09:55:23;;;;;;;12.18;2.50;;;18.40;99.90;;;17.60;100.00;97022.38;5052829;28;20561;-70
2022/10/24 09:57:56;;;;;;;10.05;2.00;;;18.40;99.90;;;17.44;100.00;97022.75;5056315;28;20053;-70
2022/10/24 10:00:29;;;;;;;12.85;2.10;;;18.40;99.90;;;17.49;100.00;97031.13;5049118;28;20060;-68
2022/10/24 10:03:19;;;;;;;;;;;18.40;99.90;;;17.41;100.00;97045.81;5051341;28;20074;-68
2022/10/24 10:05:53;;;;;;;8.20;2.22;;;18.50;99.90;;;17.65;100.00;97043.88;5067237;28;19930;-68
2022/10/24 10:08:28;;;;;;;11.07;2.20;;;18.60;99.90;;;17.73;100.00;97041.44;5055556;28;20094;-68
2022/10/24 10:11:12;;;;;;;10.75;2.13;;;18.60;99.90;;;17.56;100.00;97034.06;5054957;28;20052;-68
2022/10/24 10:13:53;;;;;;;8.75;2.03;;;18.60;99.90;;;17.78;100.00;97051.56;5052069;28;20049;-69
2022/10/24 10:16:25;;;;;;;8.90;1.70;;;18.70;99.90;;;17.67;100.00;97077.84;5054339;28;20323;-68
2022/10/24 10:19:15;;;;;;;8.87;1.53;;;18.70;99.90;;;17.72;100.00;97066.03;5058954;28;20049;-69
2022/10/24 10:22:08;;;;;;;7.63;1.83;;;18.90;99.90;;;17.97;100.00;97082.47;5061052;28;20060;-68
2022/10/24 10:24:40;;;;;;;8.18;1.58;;;19.00;99.90;;;18.21;100.00;97068.31;5054849;28;20045;-68
2022/10/24 10:27:30;;;;;;;6.55;1.48;;;19.10;99.90;;;18.09;100.00;97089.38;5058038;28;20236;-69
2022/10/24 10:30:15;;;;;;;6.95;1.27;;;19.40;99.90;;;18.60;100.00;97080.78;5059082;28;20048;-68